Time;durP1;ratioP1;P1;durP2;ratioP2;P2;SDS_P1;SDS_P2;PMS_P1;PMS_P2;Temp;Humidity;BMP_temperature;BMP_pressure;BME280_temperature;BME280_humidity;BME280_pressure;Samples;Min_cycle;Max_cycle;Signal;HPM_P1;HPM_P2
2023/01/16 00:00:19;;;;;;;4.07;1.15;;;9.60;53.50;;;;;;4927621;28;20056;-47
2023/01/16 00:02:46;;;;;;;3.00;0.90;;;9.60;53.60;;;;;;4938574;28;20057;-47
2023/01/16 00:05:13;;;;;;;4.32;1.05;;;9.60;53.60;;;;;;4937631;28;20062;-48
2023/01/16 00:07:41;;;;;;;5.57;0.80;;;9.50;53.60;;;;;;4932943;28;20419;-45
2023/01/16 00:10:09;;;;;;;4.47;1.02;;;9.50;53.60;;;;;;4925826;28;20059;-49
2023/01/16 00:12:36;;;;;;;3.38;1.08;;;9.50;53.70;;;;;;4933936;28;20388;-46
2023/01/16 00:15:06;;;;;;;5.90;0.80;;;9.50;53.70;;;;;;4934202;28;20051;-48
2023/01/16 00:17:33;;;;;;;5.68;0.80;;;9.50;53.80;;;;;;4932269;28;20423;-47
2023/01/16 00:20:00;;;;;;;2.17;0.60;;;9.50;53.80;;;;;;4927243;28;20059;-46
2023/01/16 00:22:27;;;;;;;3.13;0.70;;;9.50;53.90;;;;;;4936398;28;20491;-46
2023/01/16 00:24:54;;;;;;;2.10;0.70;;;9.50;53.90;;;;;;4934711;28;20063;-49
2023/01/16 00:27:22;;;;;;;4.68;0.60;;;9.50;53.80;;;;;;4939407;28;20067;-46
2023/01/16 00:29:49;;;;;;;2.92;0.70;;;9.50;53.90;;;;;;4945096;28;20116;-47
2023/01/16 00:32:17;;;;;;;3.20;0.77;;;9.50;53.80;;;;;;4953478;28;20066;-45
2023/01/16 00:34:45;;;;;;;4.18;0.73;;;9.50;53.80;;;;;;4950733;28;20059;-46
2023/01/16 00:37:12;;;;;;;5.10;0.68;;;9.50;53.80;;;;;;4942020;28;20055;-46
2023/01/16 00:39:39;;;;;;;2.20;0.55;;;9.50;53.80;;;;;;4940529;28;20074;-49
2023/01/16 00:42:07;;;;;;;1.88;0.47;;;9.50;53.80;;;;;;4947956;28;20055;-50
2023/01/16 00:44:34;;;;;;;7.55;0.55;;;9.50;53.70;;;;;;4944813;28;20054;-47
2023/01/16 00:47:01;;;;;;;1.65;0.47;;;9.50;53.70;;;;;;4945922;28;20047;-48
2023/01/16 00:49:30;;;;;;;7.97;0.90;;;9.50;53.70;;;;;;4942979;28;20065;-47
2023/01/16 00:51:57;;;;;;;4.18;0.70;;;9.50;53.70;;;;;;4945669;28;20062;-46
2023/01/16 00:54:24;;;;;;;1.48;0.60;;;9.50;53.70;;;;;;4949358;28;20086;-47
2023/01/16 00:56:52;;;;;;;3.55;0.60;;;9.50;53.70;;;;;;4936767;28;20514;-47
2023/01/16 00:59:19;;;;;;;4.13;0.50;;;9.50;53.70;;;;;;4941309;28;20061;-47
2023/01/16 01:01:46;;;;;;;4.20;0.57;;;9.50;53.80;;;;;;4941703;28;20518;-48
2023/01/16 01:04:13;;;;;;;2.28;0.63;;;9.40;53.70;;;;;;4944718;28;20067;-51
2023/01/16 01:06:42;;;;;;;3.53;0.60;;;9.50;53.80;;;;;;4950739;28;20056;-49
2023/01/16 01:09:09;;;;;;;1.70;0.47;;;9.50;53.80;;;;;;4948129;28;20062;-48
2023/01/16 01:11:37;;;;;;;2.55;0.60;;;9.50;53.80;;;;;;4948787;28;20057;-48
2023/01/16 01:14:04;;;;;;;1.92;0.50;;;9.50;53.90;;;;;;4945495;28;20055;-46
2023/01/16 01:16:32;;;;;;;2.63;0.57;;;9.50;53.90;;;;;;4941285;28;20055;-46
2023/01/16 01:18:59;;;;;;;3.70;0.50;;;9.50;54.00;;;;;;4940667;28;20067;-45
2023/01/16 01:21:26;;;;;;;1.85;0.40;;;9.50;54.10;;;;;;4940628;28;20074;-48
2023/01/16 01:23:56;;;;;;;3.40;0.45;;;9.50;54.20;;;;;;4936707;28;20062;-45
2023/01/16 01:26:23;;;;;;;1.20;0.30;;;9.50;54.40;;;;;;4946788;28;20059;-47
2023/01/16 01:28:50;;;;;;;4.07;0.70;;;9.50;54.40;;;;;;4927183;28;20060;-48
2023/01/16 01:31:18;;;;;;;1.63;0.50;;;9.50;54.50;;;;;;4924443;28;20415;-46
2023/01/16 01:33:45;;;;;;;1.88;0.60;;;9.50;54.60;;;;;;4924967;28;20056;-47
2023/01/16 01:36:12;;;;;;;3.45;1.20;;;9.50;54.60;;;;;;4928671;28;20058;-50
2023/01/16 01:38:39;;;;;;;1.45;0.80;;;9.60;54.70;;;;;;4929275;28;20415;-49
2023/01/16 01:41:10;;;;;;;1.55;0.45;;;9.60;54.70;;;;;;4926081;28;20408;-46
2023/01/16 01:43:45;;;;;;;2.03;0.32;;;9.60;54.70;;;;;;4928625;28;20066;-48
2023/01/16 01:46:22;;;;;;;1.67;0.40;;;9.60;54.60;;;;;;4928646;28;20067;-46
2023/01/16 01:48:54;;;;;;;2.60;0.60;;;9.50;54.50;;;;;;4925154;28;20055;-47
2023/01/16 01:51:25;;;;;;;2.22;0.30;;;9.60;54.50;;;;;;4921875;28;20059;-45
2023/01/16 01:53:56;;;;;;;2.08;0.47;;;9.60;54.40;;;;;;4929856;28;20086;-48
2023/01/16 01:56:31;;;;;;;2.25;0.60;;;9.50;54.40;;;;;;4934523;28;20056;-47
2023/01/16 01:59:02;;;;;;;1.33;0.40;;;9.50;54.30;;;;;;4931742;28;20411;-46
2023/01/16 02:01:30;;;;;;;3.60;0.85;;;9.50;54.30;;;;;;4920857;28;20076;-46
2023/01/16 02:04:01;;;;;;;2.50;0.43;;;9.50;54.30;;;;;;4924515;28;20420;-47
2023/01/16 02:06:35;;;;;;;4.25;0.60;;;9.40;54.30;;;;;;4926484;28;20051;-48
2023/01/16 02:09:02;;;;;;;;;;;9.40;54.30;;;;;;4927854;28;20508;-50
2023/01/16 02:11:36;;;;;;;1.40;0.30;;;9.40;54.20;;;;;;4934031;28;20298;-48
2023/01/16 02:14:07;;;;;;;1.75;0.50;;;9.40;54.10;;;;;;4931755;28;20051;-47
2023/01/16 02:19:28;;;;;;;1.45;0.40;;;9.40;54.10;;;;;;4933405;28;20052;-48
2023/01/16 02:22:28;;;;;;;1.77;0.55;;;9.40;54.10;;;;;;4920972;28;20063;-48
2023/01/16 02:25:26;;;;;;;3.53;0.45;;;9.40;54.00;;;;;;4914276;28;20056;-46
2023/01/16 02:28:39;;;;;;;2.63;0.40;;;9.40;54.00;;;;;;4957935;28;20044;-49
2023/01/16 02:31:20;;;;;;;2.78;0.50;;;9.30;53.90;;;;;;4954674;28;20058;-48
2023/01/16 02:34:01;;;;;;;1.40;0.22;;;9.30;53.90;;;;;;4951784;28;20086;-48
2023/01/16 02:36:38;;;;;;;1.27;0.40;;;9.30;53.80;;;;;;4945746;28;20067;-52
2023/01/16 02:39:18;;;;;;;3.25;0.60;;;9.20;53.70;;;;;;4947113;28;20505;-47
2023/01/16 02:41:51;;;;;;;0.80;0.30;;;9.20;53.70;;;;;;4947320;28;20066;-51
2023/01/16 02:44:29;;;;;;;1.95;0.50;;;9.20;53.80;;;;;;4953251;28;21116;-49
2023/01/16 02:47:06;;;;;;;3.30;1.13;;;9.20;53.80;;;;;;4949642;28;20499;-49
2023/01/16 02:49:43;;;;;;;2.92;0.40;;;9.20;53.90;;;;;;4948655;28;20055;-49
2023/01/16 02:52:14;;;;;;;2.75;0.50;;;9.10;53.90;;;;;;4950615;28;20075;-47
2023/01/16 02:54:46;;;;;;;3.78;0.82;;;9.10;54.40;;;;;;4947554;28;20066;-47
2023/01/16 02:57:17;;;;;;;4.43;1.13;;;9.10;54.00;;;;;;4959223;28;20051;-49
2023/01/16 02:59:45;;;;;;;3.22;0.50;;;9.00;54.10;;;;;;4941041;28;20408;-48
2023/01/16 03:02:14;;;;;;;2.50;0.50;;;9.00;54.10;;;;;;4948592;28;20047;-48
2023/01/16 03:04:47;;;;;;;4.10;0.77;;;9.00;54.30;;;;;;4943678;28;20070;-48
2023/01/16 03:07:48;;;;;;;2.27;0.40;;;9.00;54.40;;;;;;4953891;28;20055;-45
2023/01/16 03:10:30;;;;;;;7.05;0.60;;;9.00;54.50;;;;;;4933469;28;20059;-46
2023/01/16 03:13:12;;;;;;;1.67;0.40;;;9.00;54.50;;;;;;4952708;28;20491;-49
2023/01/16 03:15:46;;;;;;;2.45;0.30;;;9.00;54.40;;;;;;4947123;28;20051;-49
2023/01/16 03:18:28;;;;;;;4.68;0.75;;;9.00;54.40;;;;;;4948520;28;20050;-46
2023/01/16 03:21:01;;;;;;;1.52;0.40;;;9.00;54.40;;;;;;4955430;28;20055;-47
2023/01/16 03:23:35;;;;;;;2.42;0.30;;;9.00;54.80;;;;;;4947914;28;20055;-49
2023/01/16 03:26:06;;;;;;;4.03;0.60;;;9.00;54.30;;;;;;4943352;28;20407;-47
2023/01/16 03:28:42;;;;;;;2.65;0.60;;;9.00;54.30;;;;;;4945395;28;20066;-48
2023/01/16 03:31:15;;;;;;;2.05;0.70;;;9.00;54.30;;;;;;4944452;28;20056;-47
2023/01/16 03:33:58;;;;;;;1.33;0.50;;;9.00;54.30;;;;;;4954087;28;20436;-49
2023/01/16 03:36:31;;;;;;;2.72;0.52;;;9.00;54.30;;;;;;4948661;28;20050;-46
2023/01/16 03:39:00;;;;;;;5.07;0.52;;;9.00;54.30;;;;;;4952211;28;20058;-51
2023/01/16 03:41:29;;;;;;;3.08;0.40;;;9.00;54.40;;;;;;4949929;28;20486;-50
2023/01/16 03:44:00;;;;;;;2.83;0.60;;;9.00;54.50;;;;;;4949290;28;20059;-47
2023/01/16 03:46:30;;;;;;;2.35;0.50;;;9.00;54.60;;;;;;4945722;28;20612;-50
2023/01/16 03:49:03;;;;;;;1.48;0.55;;;9.00;54.60;;;;;;4941345;28;20418;-49
2023/01/16 03:51:34;;;;;;;2.50;0.55;;;9.00;54.60;;;;;;4947522;28;20059;-45
2023/01/16 03:54:05;;;;;;;4.75;0.80;;;9.00;55.10;;;;;;4950671;28;20051;-50
2023/01/16 03:56:37;;;;;;;1.95;0.50;;;9.00;54.70;;;;;;4947544;28;20059;-49
2023/01/16 03:59:05;;;;;;;1.38;0.50;;;9.00;54.70;;;;;;4942958;28;20059;-49
2023/01/16 04:01:40;;;;;;;5.93;0.50;;;9.00;54.70;;;;;;4942367;28;20526;-48
2023/01/16 04:04:15;;;;;;;1.80;0.60;;;9.00;54.70;;;;;;4952238;28;20051;-50
2023/01/16 04:06:46;;;;;;;2.63;0.50;;;9.00;55.20;;;;;;4957383;28;20529;-46
2023/01/16 04:09:19;;;;;;;2.45;0.52;;;9.00;54.70;;;;;;4950015;28;20058;-46
2023/01/16 04:11:50;;;;;;;2.33;0.57;;;9.00;54.70;;;;;;4944084;28;20411;-49
2023/01/16 04:14:19;;;;;;;2.22;0.45;;;9.00;54.70;;;;;;4942003;28;20990;-47
2023/01/16 04:16:46;;;;;;;1.45;0.40;;;9.00;54.70;;;;;;4952844;28;20047;-45
2023/01/16 04:19:16;;;;;;;3.80;0.63;;;9.00;54.80;;;;;;4947965;28;20054;-49
2023/01/16 04:21:44;;;;;;;1.90;0.68;;;9.00;54.80;;;;;;4950051;28;20050;-48
2023/01/16 04:24:12;;;;;;;1.95;0.55;;;9.00;54.90;;;;;;4951217;28;20055;-51
2023/01/16 04:26:39;;;;;;;8.02;0.93;;;9.00;54.80;;;;;;4941831;28;20078;-47
2023/01/16 04:29:06;;;;;;;2.17;0.60;;;9.00;54.80;;;;;;4930916;28;20055;-49
2023/01/16 04:31:34;;;;;;;3.92;0.60;;;9.00;54.80;;;;;;4934606;28;20051;-47
2023/01/16 04:34:01;;;;;;;1.88;0.35;;;9.00;54.70;;;;;;4931170;28;20070;-47
2023/01/16 04:36:30;;;;;;;0.73;0.30;;;9.00;54.70;;;;;;4936722;28;20063;-49
2023/01/16 04:38:58;;;;;;;1.17;0.20;;;9.00;54.60;;;;;;4928955;28;21401;-47
2023/01/16 04:41:37;;;;;;;0.95;0.25;;;9.00;54.60;;;;;;4927429;28;20056;-49
2023/01/16 04:44:06;;;;;;;1.48;0.35;;;9.00;54.60;;;;;;4934987;28;20510;-47
2023/01/16 04:46:34;;;;;;;1.40;0.30;;;9.00;55.20;;;;;;4927895;28;20555;-48
2023/01/16 04:49:01;;;;;;;1.20;0.32;;;9.00;54.70;;;;;;4931048;28;20064;-46
2023/01/16 04:51:30;;;;;;;1.38;0.43;;;9.00;54.70;;;;;;4933951;28;20055;-47
2023/01/16 04:53:57;;;;;;;2.40;0.40;;;9.00;54.70;;;;;;4932125;28;20078;-48
2023/01/16 04:56:24;;;;;;;2.08;0.47;;;9.00;54.80;;;;;;4929598;28;20068;-48
2023/01/16 04:58:53;;;;;;;3.05;0.68;;;9.00;54.80;;;;;;4932462;28;20052;-48
2023/01/16 05:01:21;;;;;;;0.98;0.38;;;9.00;54.90;;;;;;4922741;28;20063;-46
2023/01/16 05:03:48;;;;;;;1.38;0.30;;;9.00;54.90;;;;;;4937138;28;20445;-48
2023/01/16 05:06:15;;;;;;;3.83;0.38;;;9.00;54.90;;;;;;4933856;28;20055;-46
2023/01/16 05:08:44;;;;;;;1.95;0.50;;;9.00;54.90;;;;;;4929322;28;20058;-48
2023/01/16 05:11:14;;;;;;;0.88;0.35;;;9.00;54.90;;;;;;4928270;28;20545;-48
2023/01/16 05:13:41;;;;;;;1.35;0.38;;;9.00;54.90;;;;;;4923575;28;20055;-48
2023/01/16 05:16:08;;;;;;;3.42;0.45;;;9.00;54.90;;;;;;4935244;28;20624;-50
2023/01/16 05:18:36;;;;;;;1.13;0.40;;;9.10;55.00;;;;;;4929154;28;20054;-47
2023/01/16 05:21:04;;;;;;;14.88;5.18;;;9.00;55.00;;;;;;4933140;28;20062;-49
2023/01/16 05:23:33;;;;;;;11.40;4.82;;;9.10;55.10;;;;;;4931871;28;20405;-48
2023/01/16 05:26:02;;;;;;;5.63;1.70;;;9.10;55.20;;;;;;4926726;28;20058;-50
2023/01/16 05:28:29;;;;;;;2.15;0.80;;;9.10;55.10;;;;;;4926147;28;20056;-50
2023/01/16 05:30:57;;;;;;;1.05;0.60;;;9.00;55.00;;;;;;4925696;28;20051;-51
2023/01/16 05:33:24;;;;;;;4.13;0.90;;;9.00;55.10;;;;;;4922944;28;20055;-50
2023/01/16 05:35:52;;;;;;;3.28;0.60;;;9.10;55.20;;;;;;4933586;28;20055;-46
2023/01/16 05:38:19;;;;;;;6.85;0.80;;;9.10;55.10;;;;;;4929997;28;20055;-50
2023/01/16 05:40:47;;;;;;;1.35;0.55;;;9.10;55.10;;;;;;4931139;28;20530;-47
2023/01/16 05:43:16;;;;;;;1.83;0.45;;;9.10;55.10;;;;;;4927800;28;20071;-50
2023/01/16 05:45:43;;;;;;;3.72;0.90;;;9.00;55.00;;;;;;4932840;28;20055;-49
2023/01/16 05:48:10;;;;;;;1.33;0.45;;;9.00;55.00;;;;;;4933819;28;20055;-49
2023/01/16 05:50:38;;;;;;;7.50;1.88;;;9.00;55.00;;;;;;4925614;28;20059;-47
2023/01/16 05:53:05;;;;;;;5.55;0.60;;;9.10;55.00;;;;;;4924055;28;20063;-46
2023/01/16 05:55:42;;;;;;;4.65;1.00;;;9.10;54.90;;;;;;4934354;28;20055;-48
2023/01/16 05:58:11;;;;;;;9.38;3.40;;;9.10;55.00;;;;;;4937254;28;20400;-48
2023/01/16 06:00:40;;;;;;;6.65;2.75;;;9.10;54.90;;;;;;4932018;28;20059;-48
2023/01/16 06:03:08;;;;;;;4.07;1.02;;;9.10;54.90;;;;;;4934154;28;20047;-46
2023/01/16 06:05:36;;;;;;;3.78;0.98;;;9.10;54.90;;;;;;4931655;28;20400;-49
2023/01/16 06:08:04;;;;;;;4.00;0.90;;;9.10;54.80;;;;;;4928874;28;20056;-50
2023/01/16 06:10:31;;;;;;;5.55;0.88;;;9.00;54.80;;;;;;4936529;28;20346;-49
2023/01/16 06:13:00;;;;;;;2.83;0.55;;;9.00;54.80;;;;;;4933907;28;20412;-50
2023/01/16 06:15:27;;;;;;;1.42;0.63;;;9.00;54.70;;;;;;4931520;28;20062;-46
2023/01/16 06:17:56;;;;;;;3.28;0.88;;;9.00;54.70;;;;;;4931092;28;20060;-49
2023/01/16 06:20:23;;;;;;;3.83;0.73;;;9.00;54.70;;;;;;4932465;28;20070;-49
2023/01/16 06:22:51;;;;;;;5.90;0.98;;;9.00;54.70;;;;;;4932214;28;20062;-47
2023/01/16 06:25:18;;;;;;;1.27;0.63;;;9.00;54.70;;;;;;4927612;28;20503;-50
2023/01/16 06:27:49;;;;;;;9.95;3.22;;;9.00;54.60;;;;;;4935824;28;20499;-47
2023/01/16 06:30:17;;;;;;;14.07;5.07;;;9.00;54.60;;;;;;4928722;28;20051;-50
2023/01/16 06:32:45;;;;;;;5.88;2.10;;;9.00;54.60;;;;;;4949336;28;20043;-48
2023/01/16 06:35:13;;;;;;;3.67;1.13;;;9.10;54.70;;;;;;4955990;28;20066;-49
2023/01/16 06:37:40;;;;;;;3.78;0.90;;;9.00;54.60;;;;;;4954087;28;20059;-48
2023/01/16 06:40:09;;;;;;;5.13;1.00;;;9.10;54.60;;;;;;4946456;28;20055;-49
2023/01/16 06:42:36;;;;;;;4.40;0.90;;;9.00;54.50;;;;;;4991162;28;20049;-50
2023/01/16 06:45:04;;;;;;;3.97;0.70;;;9.00;54.40;;;;;;4952262;28;20054;-50
2023/01/16 06:47:31;;;;;;;2.83;0.75;;;9.00;54.40;;;;;;4950569;28;20061;-47
2023/01/16 06:50:00;;;;;;;2.90;0.80;;;9.00;54.30;;;;;;4952457;28;20055;-50
2023/01/16 06:52:34;;;;;;;7.10;1.42;;;9.00;54.30;;;;;;4949077;28;20435;-50
2023/01/16 06:55:02;;;;;;;2.83;0.93;;;9.00;54.20;;;;;;4949950;28;20054;-47
2023/01/16 06:57:30;;;;;;;3.58;0.70;;;9.00;54.20;;;;;;4961078;28;20054;-46
2023/01/16 06:59:57;;;;;;;3.85;0.73;;;9.00;54.20;;;;;;4951318;28;20500;-46
2023/01/16 07:02:24;;;;;;;2.40;0.65;;;9.00;54.20;;;;;;4956920;28;20047;-50
2023/01/16 07:04:52;;;;;;;7.60;0.93;;;9.00;54.10;;;;;;4950871;28;20054;-48
2023/01/16 07:07:19;;;;;;;4.22;0.80;;;9.00;54.20;;;;;;4956534;28;20058;-47
2023/01/16 07:09:47;;;;;;;5.97;1.05;;;9.00;54.20;;;;;;4954229;28;20047;-47
2023/01/16 07:12:15;;;;;;;7.32;1.02;;;9.00;54.30;;;;;;4959999;28;20449;-48
2023/01/16 07:22:57;;;;;;;4.75;0.70;;;9.00;54.10;;;;;;4953304;28;20429;-49
2023/01/16 07:25:33;;;;;;;5.60;0.80;;;9.00;54.10;;;;;;4947269;28;20059;-50
2023/01/16 07:28:01;;;;;;;4.20;1.02;;;9.00;54.50;;;;;;4960287;28;20058;-49
2023/01/16 07:30:28;;;;;;;3.63;1.17;;;9.00;54.00;;;;;;4960499;28;20047;-48
2023/01/16 07:32:55;;;;;;;3.33;0.75;;;9.10;54.10;;;;;;4962256;28;20054;-50
2023/01/16 07:35:23;;;;;;;5.38;0.73;;;9.00;54.00;;;;;;4962125;28;20427;-47
2023/01/16 07:37:51;;;;;;;3.95;0.98;;;9.00;53.90;;;;;;4962106;28;20407;-48
2023/01/16 07:40:19;;;;;;;6.20;1.13;;;9.00;53.90;;;;;;4958660;28;20061;-48
2023/01/16 07:42:47;;;;;;;6.10;1.00;;;9.00;53.90;;;;;;4960136;28;20058;-47
2023/01/16 07:45:14;;;;;;;4.68;0.88;;;9.00;53.90;;;;;;4961345;28;20422;-50
2023/01/16 07:47:42;;;;;;;3.85;0.60;;;9.10;53.90;;;;;;4958973;28;20050;-49
2023/01/16 07:50:10;;;;;;;6.75;0.80;;;9.10;54.00;;;;;;4958485;28;20057;-48
2023/01/16 07:52:37;;;;;;;4.50;0.82;;;9.10;54.00;;;;;;4961592;28;20065;-51
2023/01/16 07:55:06;;;;;;;8.13;1.23;;;9.10;54.00;;;;;;4958419;28;20054;-51
2023/01/16 07:57:36;;;;;;;3.22;0.90;;;9.10;54.10;;;;;;4961322;28;20062;-51
2023/01/16 08:00:06;;;;;;;4.03;0.93;;;9.10;54.00;;;;;;4957881;28;20305;-46
2023/01/16 08:02:33;;;;;;;2.45;0.65;;;9.10;54.10;;;;;;4960323;28;20507;-47
2023/01/16 08:05:01;;;;;;;2.60;0.70;;;9.10;54.20;;;;;;4959824;28;20062;-47
2023/01/16 08:07:29;;;;;;;6.80;0.90;;;9.20;54.30;;;;;;4945308;28;20055;-48
2023/01/16 08:09:56;;;;;;;3.03;0.80;;;9.20;54.40;;;;;;4956048;28;20050;-47
2023/01/16 08:12:24;;;;;;;3.10;0.80;;;9.20;54.40;;;;;;4960986;28;20051;-48
2023/01/16 08:14:51;;;;;;;4.20;0.95;;;9.20;54.50;;;;;;4956759;28;20601;-47
2023/01/16 08:17:19;;;;;;;4.15;0.70;;;9.20;54.60;;;;;;4958787;28;20061;-46
2023/01/16 08:19:47;;;;;;;3.50;0.85;;;9.20;54.50;;;;;;4960981;28;20051;-45
2023/01/16 08:22:14;;;;;;;5.28;0.93;;;9.20;54.60;;;;;;4959910;28;20415;-46
2023/01/16 08:24:41;;;;;;;5.57;0.90;;;9.20;54.80;;;;;;4957367;28;20082;-50
2023/01/16 08:27:08;;;;;;;4.40;1.10;;;9.20;54.80;;;;;;4957911;28;20051;-45
2023/01/16 08:29:36;;;;;;;6.88;0.93;;;9.20;54.80;;;;;;4957735;28;20047;-49
2023/01/16 08:32:03;;;;;;;4.85;0.77;;;9.20;54.80;;;;;;4959257;28;20054;-48
2023/01/16 08:34:32;;;;;;;4.35;0.80;;;9.20;54.90;;;;;;4960261;28;20054;-49
2023/01/16 08:36:59;;;;;;;3.35;0.60;;;9.20;54.80;;;;;;4962922;28;20065;-50
2023/01/16 08:39:29;;;;;;;5.55;1.10;;;9.20;54.90;;;;;;4957430;28;20732;-50
2023/01/16 08:53:00;;;;;;;2.72;0.45;;;9.10;55.00;;;;;;4994652;28;20065;-45
2023/01/16 08:55:27;;;;;;;6.32;0.82;;;9.10;55.00;;;;;;4957711;28;20065;-51
2023/01/16 08:57:56;;;;;;;3.25;0.70;;;9.10;55.10;;;;;;4958270;28;20057;-48
2023/01/16 09:00:24;;;;;;;2.88;0.73;;;9.10;55.10;;;;;;4956994;28;20051;-47
2023/01/16 09:02:51;;;;;;;6.97;1.00;;;9.10;55.20;;;;;;4958834;28;20054;-47
2023/01/16 09:05:21;;;;;;;2.55;0.60;;;9.10;55.20;;;;;;4956114;28;20056;-45
2023/01/16 09:07:48;;;;;;;2.70;0.45;;;9.10;55.30;;;;;;4959989;28;20052;-49
2023/01/16 09:10:16;;;;;;;3.42;0.70;;;9.10;55.40;;;;;;4957341;28;20073;-47
2023/01/16 09:15:28;;;;;;;3.92;0.47;;;9.10;55.40;;;;;;4962698;28;20046;-49
2023/01/16 09:17:55;;;;;;;3.10;0.70;;;9.10;55.40;;;;;;4962193;28;20050;-45
2023/01/16 09:20:24;;;;;;;1.52;0.63;;;9.00;55.40;;;;;;4957943;28;20058;-50
2023/01/16 09:22:58;;;;;;;4.13;0.57;;;9.00;55.50;;;;;;4991567;28;20043;-48
2023/01/16 09:25:25;;;;;;;;;;;9.00;55.50;;;;;;4957120;28;20464;-47
2023/01/16 09:27:52;;;;;;;23.08;7.20;;;9.10;55.60;;;;;;4997164;28;19925;-49
2023/01/16 09:30:19;;;;;;;7.75;2.33;;;9.00;55.30;;;;;;5035221;28;20045;-48
2023/01/16 09:32:48;;;;;;;5.60;1.42;;;9.00;55.40;;;;;;5029252;28;21190;-46
2023/01/16 09:35:15;;;;;;;2.28;0.80;;;9.00;55.40;;;;;;5030805;28;20053;-45
2023/01/16 09:37:44;;;;;;;2.63;0.70;;;9.00;55.40;;;;;;5035939;28;20072;-48
2023/01/16 09:40:15;;;;;;;3.95;0.80;;;9.00;56.10;;;;;;5030217;28;20064;-48
2023/01/16 09:45:57;;;;;;;2.55;0.70;;;9.00;55.60;;;;;;5035335;28;20425;-49
2023/01/16 09:48:29;;;;;;;2.40;0.60;;;9.00;55.50;;;;;;5032125;28;20386;-46
2023/01/16 09:51:01;;;;;;;3.33;0.68;;;9.00;55.50;;;;;;5035784;28;20919;-46
2023/01/16 09:59:20;;;;;;;3.88;0.63;;;8.90;55.40;;;;;;5033478;28;20714;-50
2023/01/16 10:01:54;;;;;;;1.90;0.80;;;8.90;55.30;;;;;;5038321;28;20061;-52
2023/01/16 10:04:22;;;;;;;;;;;8.90;55.30;;;;;;5042776;28;20060;-47
2023/01/16 10:06:59;;;;;;;1.27;0.40;;;8.90;55.40;;;;;;5036983;28;19944;-50
2023/01/16 10:09:34;;;;;;;1.30;0.40;;;8.90;55.30;;;;;;5030211;28;20080;-49
2023/01/16 10:12:05;;;;;;;1.38;0.45;;;8.90;55.40;;;;;;5032844;28;20048;-50
2023/01/16 10:14:43;;;;;;;2.53;0.55;;;8.90;55.50;;;;;;5027763;28;20401;-49
2023/01/16 10:17:20;;;;;;;2.00;0.47;;;8.80;55.50;;;;;;5023360;28;20053;-47
2023/01/16 10:20:00;;;;;;;1.00;0.50;;;8.90;55.60;;;;;;5036084;28;20424;-45
2023/01/16 10:22:39;;;;;;;1.15;0.60;;;8.80;55.60;;;;;;5039872;28;20060;-47
2023/01/16 10:25:19;;;;;;;2.08;0.98;;;8.80;55.50;;;;;;5040196;28;20527;-46
2023/01/16 10:27:57;;;;;;;2.20;0.85;;;8.80;55.50;;;;;;4989370;28;20051;-45
2023/01/16 10:30:29;;;;;;;2.50;1.20;;;8.80;55.50;;;;;;4952028;28;20051;-51
2023/01/16 10:33:04;;;;;;;13.55;8.02;;;8.80;55.50;;;;;;4951249;28;21357;-47
2023/01/16 10:35:35;;;;;;;5.45;2.92;;;8.80;55.60;;;;;;4944325;28;20063;-49
2023/01/16 10:38:17;;;;;;;4.45;2.90;;;8.80;55.60;;;;;;4944780;28;20562;-48
2023/01/16 10:40:47;;;;;;;2.65;1.50;;;8.80;55.60;;;;;;4945698;28;20126;-50
2023/01/16 10:51:50;;;;;;;7.25;4.35;;;8.80;55.70;;;;;;4958843;28;20430;-49
2023/01/16 10:54:17;;;;;;;7.13;3.38;;;8.80;55.70;;;;;;4946535;28;20058;-49
2023/01/16 10:56:45;;;;;;;13.60;6.20;;;8.80;55.70;;;;;;4947484;28;20047;-46
2023/01/16 10:59:14;;;;;;;5.07;3.20;;;8.70;55.90;;;;;;4947457;28;20051;-48
2023/01/16 11:01:42;;;;;;;14.82;6.68;;;8.70;56.00;;;;;;4955111;28;20499;-51
2023/01/16 11:04:12;;;;;;;13.65;6.60;;;8.70;55.90;;;;;;4947540;28;20062;-47
2023/01/16 11:06:41;;;;;;;5.15;2.92;;;8.70;55.90;;;;;;4950407;28;20058;-47
2023/01/16 11:09:19;;;;;;;6.85;3.30;;;8.70;56.00;;;;;;4947149;28;20070;-48
2023/01/16 11:20:22;;;;;;;1.38;0.90;;;8.70;56.10;;;;;;4950934;28;20066;-47
2023/01/16 11:22:58;;;;;;;1.35;0.70;;;8.70;56.20;;;;;;4950212;28;20058;-48
2023/01/16 11:25:28;;;;;;;1.35;0.50;;;8.70;56.20;;;;;;4947388;28;20048;-47
2023/01/16 11:27:59;;;;;;;0.65;0.40;;;8.70;56.10;;;;;;4981114;28;20070;-50
2023/01/16 11:30:31;;;;;;;3.45;0.57;;;8.70;56.20;;;;;;4950466;28;20063;-49
2023/01/16 11:32:59;;;;;;;1.95;0.50;;;8.80;56.40;;;;;;4949228;28;20507;-46
2023/01/16 11:35:33;;;;;;;4.32;0.70;;;8.80;56.50;;;;;;4941408;28;20054;-48
2023/01/16 11:38:02;;;;;;;1.27;0.40;;;8.80;56.60;;;;;;4955601;28;20074;-48
2023/01/16 11:40:32;;;;;;;1.60;0.50;;;8.90;56.60;;;;;;4950615;28;20419;-49
2023/01/16 11:46:06;;;;;;;0.52;0.30;;;8.90;56.70;;;;;;4985552;28;20061;-49
2023/01/16 11:48:41;;;;;;;2.17;0.90;;;9.00;56.60;;;;;;4945008;28;20055;-45
2023/01/16 11:51:14;;;;;;;2.10;0.88;;;9.00;56.50;;;;;;4957968;28;20419;-47
2023/01/16 11:53:45;;;;;;;4.73;0.67;;;9.00;56.40;;;;;;4948985;28;20423;-47
2023/01/16 11:56:28;;;;;;;1.08;0.50;;;9.00;56.40;;;;;;4967645;28;20064;-49
2023/01/16 11:59:09;;;;;;;2.65;0.35;;;9.00;56.40;;;;;;4977781;28;20056;-47
2023/01/16 12:04:39;;;;;;;1.77;0.50;;;9.00;56.20;;;;;;4953236;28;20125;-47
2023/01/16 12:07:15;;;;;;;1.52;0.55;;;9.10;56.20;;;;;;4949272;28;20055;-49
2023/01/16 12:09:49;;;;;;;1.35;0.70;;;9.10;56.10;;;;;;4949544;28;20563;-48
2023/01/16 12:15:08;;;;;;;4.30;0.95;;;9.10;56.20;;;;;;4973684;28;19929;-48
2023/01/16 12:17:47;;;;;;;3.08;0.68;;;9.10;56.20;;;;;;4938539;28;20051;-49
2023/01/16 12:20:23;;;;;;;0.93;0.50;;;9.10;56.40;;;;;;4947412;28;20563;-47
2023/01/16 12:23:20;;;;;;;2.13;0.65;;;9.10;56.40;;;;;;4948236;28;20059;-45
2023/01/16 12:25:55;;;;;;;3.88;0.57;;;9.10;56.40;;;;;;4983872;28;20487;-49
2023/01/16 12:28:33;;;;;;;0.63;0.30;;;9.10;56.40;;;;;;4947155;28;20063;-49
2023/01/16 12:31:20;;;;;;;2.25;0.60;;;9.20;56.40;;;;;;4945845;28;20051;-47
2023/01/16 12:33:58;;;;;;;0.90;0.60;;;9.20;56.40;;;;;;4942579;28;20141;-45
2023/01/16 12:36:35;;;;;;;2.28;0.60;;;9.20;56.40;;;;;;4952291;28;20495;-48
2023/01/16 12:39:12;;;;;;;1.70;0.60;;;9.20;56.50;;;;;;4956909;28;20058;-51
2023/01/16 12:44:43;;;;;;;1.50;0.40;;;9.10;56.60;;;;;;4956449;28;20430;-47
2023/01/16 12:47:33;;;;;;;1.85;0.57;;;9.10;56.70;;;;;;4945150;28;20475;-48
2023/01/16 12:50:11;;;;;;;4.68;0.68;;;9.20;56.70;;;;;;4956454;28;20505;-49
2023/01/16 12:53:02;;;;;;;1.25;0.45;;;9.20;56.90;;;;;;4941458;28;20062;-51
2023/01/16 12:55:40;;;;;;;1.13;0.47;;;9.20;56.90;;;;;;4942032;28;20066;-50
2023/01/16 12:58:15;;;;;;;3.20;0.65;;;9.20;56.80;;;;;;4944761;28;20059;-48
2023/01/16 13:00:46;;;;;;;0.55;0.45;;;9.10;56.90;;;;;;4942589;28;20063;-48
2023/01/16 13:03:27;;;;;;;2.80;0.95;;;9.10;56.80;;;;;;4941340;28;20055;-46
2023/01/16 13:05:57;;;;;;;1.20;0.45;;;9.10;56.90;;;;;;4968448;28;20062;-47
2023/01/16 13:08:28;;;;;;;1.58;0.60;;;9.10;56.90;;;;;;4941766;28;20063;-48
2023/01/16 13:13:52;;;;;;;5.72;0.63;;;9.20;57.10;;;;;;4946047;28;20411;-48
2023/01/16 13:16:26;;;;;;;1.48;0.50;;;9.20;57.10;;;;;;4942635;28;20410;-49
2023/01/16 13:18:58;;;;;;;0.82;0.55;;;9.20;57.20;;;;;;4973873;28;20055;-49
2023/01/16 13:21:28;;;;;;;0.40;0.35;;;9.20;57.20;;;;;;4941700;28;20043;-48
2023/01/16 13:23:59;;;;;;;1.30;0.75;;;9.20;57.10;;;;;;4938554;28;20074;-49
2023/01/16 13:26:29;;;;;;;2.53;0.85;;;9.20;57.10;;;;;;4941711;28;20066;-49
2023/01/16 13:29:00;;;;;;;1.50;0.77;;;9.20;57.10;;;;;;4949427;28;20067;-48
2023/01/16 13:31:33;;;;;;;1.50;0.82;;;9.20;57.10;;;;;;4945170;28;20055;-48
2023/01/16 13:34:09;;;;;;;2.28;0.55;;;9.20;57.10;;;;;;4949595;28;20058;-49
2023/01/16 13:37:30;;;;;;;0.80;0.43;;;9.20;57.20;;;;;;4947589;28;20055;-50
2023/01/16 13:40:34;;;;;;;1.48;0.40;;;9.20;57.20;;;;;;4952059;28;20051;-46
2023/01/16 13:45:51;;;;;;;1.63;0.60;;;9.30;57.20;;;;;;4952531;28;20043;-51
2023/01/16 13:48:21;;;;;;;1.13;0.70;;;9.30;57.10;;;;;;4955369;28;20474;-49
2023/01/16 13:50:59;;;;;;;1.92;0.70;;;9.30;57.20;;;;;;4949651;28;20062;-49
2023/01/16 13:53:28;;;;;;;2.58;0.82;;;9.30;57.20;;;;;;4956152;28;20062;-48
2023/01/16 13:56:06;;;;;;;1.27;0.95;;;9.30;57.30;;;;;;4961310;28;20062;-50
2023/01/16 13:58:39;;;;;;;3.08;0.65;;;9.20;57.30;;;;;;4952480;28;20059;-47
2023/01/16 14:01:07;;;;;;;0.93;0.82;;;9.30;57.30;;;;;;4957095;28;20062;-47
2023/01/16 14:03:35;;;;;;;5.35;2.92;;;9.30;57.30;;;;;;4949096;28;20047;-47
2023/01/16 14:06:22;;;;;;;2.80;1.08;;;9.30;57.40;;;;;;4952098;28;20055;-49
2023/01/16 14:09:11;;;;;;;1.38;0.70;;;9.20;57.40;;;;;;4940674;28;20157;-50
2023/01/16 14:11:41;;;;;;;2.05;0.70;;;9.20;57.40;;;;;;4949915;28;20047;-48
2023/01/16 14:17:18;;;;;;;3.20;0.80;;;9.20;57.40;;;;;;4959797;28;20057;-49
2023/01/16 14:19:56;;;;;;;0.90;0.50;;;9.30;57.40;;;;;;4952235;28;20054;-50
2023/01/16 14:25:21;;;;;;;1.67;0.40;;;9.20;57.40;;;;;;4955030;28;20070;-50
2023/01/16 14:27:52;;;;;;;0.95;0.50;;;9.30;57.50;;;;;;4951607;28;20062;-46
2023/01/16 14:30:21;;;;;;;2.10;0.40;;;9.20;57.40;;;;;;4949680;28;20062;-46
2023/01/16 14:32:53;;;;;;;1.73;0.47;;;9.30;57.40;;;;;;4958795;28;20479;-49